This is the latest recevied weather packets stored in our database for station/object CRYC. If no packets are shown the sender has not sent any weather packets the latest 10 day(s).
| Time | Temp. | Humidity | Pressure | Rain* | Wind** | Luminosity | Snow |
|---|---|---|---|---|---|---|---|
| 1778072889 | 20.56° C | - | - | 0 mm | 4.47 m/s, 246° | - | - |
| 1778072283 | 20° C | - | - | 0 mm | 3.58 m/s, 259° | - | - |
| 1778071678 | 20° C | - | - | 0 mm | 4.02 m/s, 232° | - | - |
| 1778071073 | 19.44° C | - | - | 0 mm | 8.94 m/s, 249° | - | - |
| 1778070468 | 20° C | - | - | 0 mm | 5.36 m/s, 242° | - | - |
| 1778069858 | 19.44° C | - | - | 0 mm | 4.47 m/s, 210° | - | - |
| 1778069253 | 20° C | - | - | 0 mm | 6.26 m/s, 245° | - | - |
| 1778068048 | 21.11° C | - | - | 0 mm | 4.02 m/s, 240° | - | - |
| 1778067439 | 20° C | - | - | 0 mm | 5.36 m/s, 236° | - | - |
| 1778066833 | 20° C | - | - | 0 mm | 2.24 m/s, 55° | - | - |
| 1778066228 | 18.89° C | - | - | 0 mm | 3.58 m/s, 263° | - | - |
| 1778065625 | 18.89° C | - | - | 0 mm | 2.68 m/s, 222° | - | - |
| 1778065018 | 19.44° C | - | - | 0 mm | 2.68 m/s, 211° | - | - |
| 1778064415 | 18.89° C | - | - | 0 mm | 4.47 m/s, 249° | - | - |
| 1778063808 | 20.56° C | - | - | 0 mm | 3.13 m/s, 214° | - | - |
| 1778063203 | 18.33° C | - | - | 0 mm | 4.02 m/s, 239° | - | - |
| 1778062596 | 17.78° C | - | - | 0 mm | 3.13 m/s, 252° | - | - |
| 1778061993 | 17.78° C | - | - | 0 mm | 2.24 m/s, 172° | - | - |
| 1778061389 | 17.78° C | - | - | 0 mm | 3.58 m/s, 221° | - | - |
| 1778060784 | 17.78° C | - | - | 0 mm | 1.79 m/s, 176° | - | - |
| 1778060178 | 17.78° C | - | - | 0 mm | 2.68 m/s, 245° | - | - |
| 1778059571 | 17.22° C | - | - | 0 mm | 2.24 m/s, 273° | - | - |
| 1778058967 | 17.78° C | - | - | 0 mm | 3.13 m/s, 218° | - | - |
| 1778058363 | 17.78° C | - | - | 0 mm | 3.13 m/s, 252° | - | - |
| 1778057154 | 17.78° C | - | - | 0 mm | 2.24 m/s, 242° | - | - |
* Rain latest hour (hover to see other rain measurements)
** Current wind speed in m/s (hover to see current wind gust speed)